Главная страница
METAR-TAF:

METAR-TAF

Аэропорты :

Ларнака, Кипр

широта: 34-53N, долгота: 033-38E, высота над уровнем моря: 2 м

Текущие метеонаблюдения

Эта сводка был подготовлена 38 минут назад, в 06:00 UTC
Ветер 2 Узел переменных направлений
Температура 27°C
Влажность 51%
Давление 1014 hPa
Видимость 10 км и более
Нет облачности ниже 1500 м, и нет кучево-дождевой облачности

METAR: LCLK 230600Z VRB02KT CAVOK 27/16 Q1014 NOSIG

Время: 09:38 (06:38 UTC)

Прогноз

Эта сводка был подготовлена 1 час и 8 минут назад, в 05:30 UTC
Прогноз действительный с 23-го 06 UTC до 24-го 06 UTC
Ветер 5 Узел от восточно-юго-восточный
Видимость 10 км и более
небольшая облачность на высоте 3000 фута
изменения
С 23-го 08 UTC до 23-го 10 UTC
Ветер 13 Узел от южный-юго-западный
изменения
С 23-го 16 UTC до 23-го 18 UTC
Ветер 6 Узел от северо-западный

TAF: LCLK 230530Z 2306/2406 12005KT 9999 FEW030 BECMG 2308/2310 20013KT BECMG 2316/2318 32006KT

Метеонаблюдения и прогнозы для более 4000 аэропортов (сводки METAR и TAF).

Имеющиеся станции представлены на карте желтыми и красными точками.

Чтобы увидеть название станции, наведите на нее мышь.

Затем щелкните, чтобы увидеть метеонаблюдения и метеопрогнозы.

Управление картой: чтобы увеличить масштаб, щелкните зеленые кнопки с черным крестиком; чтобы уменьшить масштаб, щелкните зеленую кнопку с тире; для просмотра соседних карт щелкайте зеленые стрелки.


METAR-TAF: